sensor_id;sensor_type;location;lat;lon;timestamp;P1;durP1;ratioP1;P2;durP2;ratioP2
66145;SDS011;52948;60.040;30.320;2024-01-16T00:01:18;43.35;;;18.45;;
66145;SDS011;52948;60.040;30.320;2024-01-16T00:06:21;39.35;;;18.67;;
66145;SDS011;52948;60.040;30.320;2024-01-16T00:11:24;40.40;;;16.60;;
66145;SDS011;52948;60.040;30.320;2024-01-16T00:16:26;37.40;;;16.23;;
66145;SDS011;52948;60.040;30.320;2024-01-16T00:21:28;31.42;;;13.57;;
66145;SDS011;52948;60.040;30.320;2024-01-16T00:26:32;29.70;;;14.07;;
66145;SDS011;52948;60.040;30.320;2024-01-16T00:31:35;27.45;;;11.45;;
66145;SDS011;52948;60.040;30.320;2024-01-16T00:36:37;29.10;;;12.10;;
66145;SDS011;52948;60.040;30.320;2024-01-16T00:41:39;29.08;;;10.82;;
66145;SDS011;52948;60.040;30.320;2024-01-16T00:46:42;26.70;;;10.98;;
66145;SDS011;52948;60.040;30.320;2024-01-16T00:51:44;27.45;;;11.30;;
66145;SDS011;52948;60.040;30.320;2024-01-16T00:56:47;30.00;;;12.07;;
66145;SDS011;52948;60.040;30.320;2024-01-16T01:01:50;26.17;;;11.25;;
66145;SDS011;52948;60.040;30.320;2024-01-16T01:06:53;13.48;;;6.80;;
66145;SDS011;52948;60.040;30.320;2024-01-16T01:11:56;21.70;;;10.68;;
66145;SDS011;52948;60.040;30.320;2024-01-16T01:16:58;22.45;;;10.15;;
66145;SDS011;52948;60.040;30.320;2024-01-16T01:22:02;28.25;;;10.70;;
66145;SDS011;52948;60.040;30.320;2024-01-16T01:27:06;22.52;;;10.05;;
66145;SDS011;52948;60.040;30.320;2024-01-16T01:32:09;20.40;;;8.55;;
66145;SDS011;52948;60.040;30.320;2024-01-16T01:37:12;20.08;;;8.70;;
66145;SDS011;52948;60.040;30.320;2024-01-16T01:42:15;23.08;;;9.30;;
66145;SDS011;52948;60.040;30.320;2024-01-16T01:47:21;21.67;;;9.93;;
66145;SDS011;52948;60.040;30.320;2024-01-16T01:52:24;12.35;;;6.13;;
66145;SDS011;52948;60.040;30.320;2024-01-16T01:57:27;22.67;;;8.90;;
66145;SDS011;52948;60.040;30.320;2024-01-16T02:02:34;19.48;;;8.15;;
66145;SDS011;52948;60.040;30.320;2024-01-16T02:07:37;17.60;;;9.18;;
66145;SDS011;52948;60.040;30.320;2024-01-16T02:12:40;20.88;;;8.95;;
66145;SDS011;52948;60.040;30.320;2024-01-16T02:17:42;18.50;;;8.25;;
66145;SDS011;52948;60.040;30.320;2024-01-16T02:22:45;17.67;;;8.05;;
66145;SDS011;52948;60.040;30.320;2024-01-16T02:27:52;22.35;;;9.80;;
66145;SDS011;52948;60.040;30.320;2024-01-16T02:32:57;16.05;;;7.70;;
66145;SDS011;52948;60.040;30.320;2024-01-16T02:37:59;18.27;;;8.35;;
66145;SDS011;52948;60.040;30.320;2024-01-16T02:43:03;18.33;;;9.32;;
66145;SDS011;52948;60.040;30.320;2024-01-16T02:48:05;5.85;;;4.30;;
66145;SDS011;52948;60.040;30.320;2024-01-16T02:53:08;17.05;;;8.25;;
66145;SDS011;52948;60.040;30.320;2024-01-16T02:58:11;15.85;;;7.57;;
66145;SDS011;52948;60.040;30.320;2024-01-16T03:03:13;19.30;;;8.95;;
66145;SDS011;52948;60.040;30.320;2024-01-16T03:08:16;15.60;;;7.32;;
66145;SDS011;52948;60.040;30.320;2024-01-16T03:13:19;14.60;;;7.65;;
66145;SDS011;52948;60.040;30.320;2024-01-16T03:18:21;20.67;;;10.30;;
66145;SDS011;52948;60.040;30.320;2024-01-16T03:23:24;19.95;;;9.30;;
66145;SDS011;52948;60.040;30.320;2024-01-16T03:28:26;17.73;;;6.75;;
66145;SDS011;52948;60.040;30.320;2024-01-16T03:33:29;19.33;;;8.57;;
66145;SDS011;52948;60.040;30.320;2024-01-16T03:38:31;16.88;;;8.55;;
66145;SDS011;52948;60.040;30.320;2024-01-16T03:43:34;18.75;;;9.50;;
66145;SDS011;52948;60.040;30.320;2024-01-16T03:48:37;19.00;;;8.27;;
66145;SDS011;52948;60.040;30.320;2024-01-16T03:53:39;6.93;;;2.72;;
66145;SDS011;52948;60.040;30.320;2024-01-16T03:58:51;2.05;;;1.85;;
66145;SDS011;52948;60.040;30.320;2024-01-16T04:03:53;7.18;;;3.08;;
66145;SDS011;52948;60.040;30.320;2024-01-16T04:08:56;9.50;;;4.90;;
66145;SDS011;52948;60.040;30.320;2024-01-16T04:13:59;3.60;;;2.05;;
66145;SDS011;52948;60.040;30.320;2024-01-16T04:19:01;1.23;;;1.13;;
66145;SDS011;52948;60.040;30.320;2024-01-16T04:24:04;7.28;;;1.35;;
66145;SDS011;52948;60.040;30.320;2024-01-16T04:29:07;4.22;;;2.40;;
66145;SDS011;52948;60.040;30.320;2024-01-16T04:34:10;4.28;;;2.10;;
66145;SDS011;52948;60.040;30.320;2024-01-16T04:39:15;7.20;;;4.22;;
66145;SDS011;52948;60.040;30.320;2024-01-16T04:44:17;1.42;;;1.33;;
66145;SDS011;52948;60.040;30.320;2024-01-16T04:49:20;5.85;;;4.22;;
66145;SDS011;52948;60.040;30.320;2024-01-16T04:54:23;8.40;;;4.13;;
66145;SDS011;52948;60.040;30.320;2024-01-16T04:59:25;3.97;;;3.05;;
66145;SDS011;52948;60.040;30.320;2024-01-16T05:04:29;6.15;;;3.95;;
66145;SDS011;52948;60.040;30.320;2024-01-16T05:09:32;11.15;;;5.57;;
66145;SDS011;52948;60.040;30.320;2024-01-16T05:14:35;10.25;;;3.00;;
66145;SDS011;52948;60.040;30.320;2024-01-16T05:19:37;1.92;;;1.35;;
66145;SDS011;52948;60.040;30.320;2024-01-16T05:24:42;10.05;;;4.40;;
66145;SDS011;52948;60.040;30.320;2024-01-16T05:29:45;2.95;;;1.50;;
66145;SDS011;52948;60.040;30.320;2024-01-16T05:34:47;13.95;;;5.95;;
66145;SDS011;52948;60.040;30.320;2024-01-16T05:39:50;5.47;;;3.65;;
66145;SDS011;52948;60.040;30.320;2024-01-16T05:44:53;12.25;;;4.80;;
66145;SDS011;52948;60.040;30.320;2024-01-16T05:49:56;11.18;;;5.25;;
66145;SDS011;52948;60.040;30.320;2024-01-16T05:55:03;11.57;;;5.25;;
66145;SDS011;52948;60.040;30.320;2024-01-16T06:00:06;6.60;;;4.25;;
66145;SDS011;52948;60.040;30.320;2024-01-16T06:05:09;8.82;;;4.88;;
66145;SDS011;52948;60.040;30.320;2024-01-16T06:10:12;3.03;;;2.42;;
66145;SDS011;52948;60.040;30.320;2024-01-16T06:15:15;6.13;;;3.97;;
66145;SDS011;52948;60.040;30.320;2024-01-16T06:20:18;7.47;;;4.93;;
66145;SDS011;52948;60.040;30.320;2024-01-16T06:25:22;8.20;;;4.10;;
66145;SDS011;52948;60.040;30.320;2024-01-16T06:30:25;8.60;;;4.13;;
66145;SDS011;52948;60.040;30.320;2024-01-16T06:35:28;8.60;;;4.28;;
66145;SDS011;52948;60.040;30.320;2024-01-16T06:40:30;4.07;;;2.78;;
66145;SDS011;52948;60.040;30.320;2024-01-16T06:45:32;7.07;;;3.75;;
66145;SDS011;52948;60.040;30.320;2024-01-16T06:50:35;6.30;;;5.78;;
66145;SDS011;52948;60.040;30.320;2024-01-16T06:55:38;6.70;;;3.83;;
66145;SDS011;52948;60.040;30.320;2024-01-16T07:00:40;2.58;;;1.48;;
66145;SDS011;52948;60.040;30.320;2024-01-16T07:05:46;4.93;;;3.72;;
66145;SDS011;52948;60.040;30.320;2024-01-16T07:10:49;1.83;;;1.70;;
66145;SDS011;52948;60.040;30.320;2024-01-16T07:15:51;5.25;;;2.88;;
66145;SDS011;52948;60.040;30.320;2024-01-16T07:20:53;6.13;;;3.15;;
66145;SDS011;52948;60.040;30.320;2024-01-16T07:25:55;8.52;;;4.47;;
66145;SDS011;52948;60.040;30.320;2024-01-16T07:30:58;10.80;;;4.22;;
66145;SDS011;52948;60.040;30.320;2024-01-16T07:36:00;5.80;;;3.75;;
66145;SDS011;52948;60.040;30.320;2024-01-16T07:41:04;6.28;;;2.70;;
66145;SDS011;52948;60.040;30.320;2024-01-16T07:46:07;1.48;;;1.38;;
66145;SDS011;52948;60.040;30.320;2024-01-16T07:51:09;3.15;;;1.92;;
66145;SDS011;52948;60.040;30.320;2024-01-16T07:56:11;7.25;;;4.05;;
66145;SDS011;52948;60.040;30.320;2024-01-16T08:01:14;2.80;;;2.20;;
66145;SDS011;52948;60.040;30.320;2024-01-16T08:06:16;3.88;;;2.15;;
66145;SDS011;52948;60.040;30.320;2024-01-16T08:11:19;8.50;;;3.58;;
66145;SDS011;52948;60.040;30.320;2024-01-16T08:16:22;12.98;;;2.05;;
66145;SDS011;52948;60.040;30.320;2024-01-16T08:21:24;5.45;;;2.55;;
66145;SDS011;52948;60.040;30.320;2024-01-16T08:26:26;7.50;;;2.78;;
66145;SDS011;52948;60.040;30.320;2024-01-16T08:31:29;1.30;;;1.20;;
66145;SDS011;52948;60.040;30.320;2024-01-16T08:36:31;2.70;;;1.70;;
66145;SDS011;52948;60.040;30.320;2024-01-16T08:41:33;0.82;;;0.80;;
66145;SDS011;52948;60.040;30.320;2024-01-16T08:46:36;8.40;;;4.63;;
66145;SDS011;52948;60.040;30.320;2024-01-16T08:51:39;10.23;;;4.38;;
66145;SDS011;52948;60.040;30.320;2024-01-16T08:56:43;8.40;;;4.22;;
66145;SDS011;52948;60.040;30.320;2024-01-16T09:01:45;4.72;;;3.95;;
66145;SDS011;52948;60.040;30.320;2024-01-16T09:06:47;2.67;;;2.33;;
66145;SDS011;52948;60.040;30.320;2024-01-16T09:11:50;8.60;;;4.43;;
66145;SDS011;52948;60.040;30.320;2024-01-16T09:16:52;5.63;;;3.22;;
66145;SDS011;52948;60.040;30.320;2024-01-16T09:21:56;9.77;;;4.70;;
66145;SDS011;52948;60.040;30.320;2024-01-16T09:26:58;9.88;;;4.32;;
66145;SDS011;52948;60.040;30.320;2024-01-16T09:32:00;3.33;;;2.65;;
66145;SDS011;52948;60.040;30.320;2024-01-16T09:37:03;6.22;;;3.25;;
66145;SDS011;52948;60.040;30.320;2024-01-16T09:42:05;7.15;;;4.05;;
66145;SDS011;52948;60.040;30.320;2024-01-16T09:47:07;6.00;;;3.05;;
66145;SDS011;52948;60.040;30.320;2024-01-16T09:52:10;10.35;;;4.80;;
66145;SDS011;52948;60.040;30.320;2024-01-16T09:57:12;8.20;;;4.32;;
66145;SDS011;52948;60.040;30.320;2024-01-16T10:02:16;5.22;;;3.83;;
66145;SDS011;52948;60.040;30.320;2024-01-16T10:07:18;8.43;;;4.38;;
66145;SDS011;52948;60.040;30.320;2024-01-16T10:12:21;7.40;;;4.13;;
66145;SDS011;52948;60.040;30.320;2024-01-16T10:22:53;7.72;;;3.65;;
66145;SDS011;52948;60.040;30.320;2024-01-16T10:28:03;2.75;;;2.15;;
66145;SDS011;52948;60.040;30.320;2024-01-16T10:33:13;8.07;;;3.83;;
66145;SDS011;52948;60.040;30.320;2024-01-16T10:38:20;5.13;;;3.13;;
66145;SDS011;52948;60.040;30.320;2024-01-16T10:43:24;8.45;;;4.55;;
66145;SDS011;52948;60.040;30.320;2024-01-16T10:48:26;12.65;;;4.00;;
66145;SDS011;52948;60.040;30.320;2024-01-16T10:53:31;7.47;;;4.10;;
66145;SDS011;52948;60.040;30.320;2024-01-16T10:58:36;5.75;;;4.03;;
66145;SDS011;52948;60.040;30.320;2024-01-16T11:03:49;8.68;;;4.72;;
66145;SDS011;52948;60.040;30.320;2024-01-16T11:08:52;10.38;;;3.25;;
66145;SDS011;52948;60.040;30.320;2024-01-16T11:13:54;6.07;;;3.55;;
66145;SDS011;52948;60.040;30.320;2024-01-16T11:18:57;6.68;;;3.97;;
66145;SDS011;52948;60.040;30.320;2024-01-16T11:24:00;6.15;;;3.25;;
66145;SDS011;52948;60.040;30.320;2024-01-16T11:39:44;8.30;;;5.03;;
66145;SDS011;52948;60.040;30.320;2024-01-16T11:44:48;9.75;;;4.22;;
66145;SDS011;52948;60.040;30.320;2024-01-16T11:50:11;7.65;;;4.78;;
66145;SDS011;52948;60.040;30.320;2024-01-16T12:00:35;7.82;;;4.45;;
66145;SDS011;52948;60.040;30.320;2024-01-16T12:05:38;9.93;;;3.92;;
66145;SDS011;52948;60.040;30.320;2024-01-16T12:10:47;10.75;;;4.35;;
66145;SDS011;52948;60.040;30.320;2024-01-16T12:16:01;5.35;;;3.25;;
66145;SDS011;52948;60.040;30.320;2024-01-16T12:21:09;8.45;;;4.05;;
66145;SDS011;52948;60.040;30.320;2024-01-16T12:26:19;4.15;;;3.08;;
66145;SDS011;52948;60.040;30.320;2024-01-16T12:31:22;5.45;;;3.92;;
66145;SDS011;52948;60.040;30.320;2024-01-16T12:36:26;8.63;;;3.15;;
66145;SDS011;52948;60.040;30.320;2024-01-16T12:41:30;6.85;;;3.28;;
66145;SDS011;52948;60.040;30.320;2024-01-16T12:46:41;7.28;;;3.40;;
66145;SDS011;52948;60.040;30.320;2024-01-16T12:51:43;7.30;;;3.60;;
66145;SDS011;52948;60.040;30.320;2024-01-16T12:56:46;7.30;;;3.42;;
66145;SDS011;52948;60.040;30.320;2024-01-16T13:01:51;9.25;;;4.05;;
66145;SDS011;52948;60.040;30.320;2024-01-16T13:07:02;5.40;;;3.60;;
66145;SDS011;52948;60.040;30.320;2024-01-16T13:12:05;8.30;;;3.75;;
66145;SDS011;52948;60.040;30.320;2024-01-16T13:17:07;6.15;;;2.63;;
66145;SDS011;52948;60.040;30.320;2024-01-16T13:22:12;5.40;;;3.25;;
66145;SDS011;52948;60.040;30.320;2024-01-16T13:27:14;8.32;;;4.32;;
66145;SDS011;52948;60.040;30.320;2024-01-16T13:32:16;3.67;;;2.60;;
66145;SDS011;52948;60.040;30.320;2024-01-16T13:37:21;4.43;;;2.55;;
66145;SDS011;52948;60.040;30.320;2024-01-16T13:42:24;6.97;;;3.28;;
66145;SDS011;52948;60.040;30.320;2024-01-16T13:47:27;5.78;;;3.28;;
66145;SDS011;52948;60.040;30.320;2024-01-16T13:52:29;10.10;;;5.95;;
66145;SDS011;52948;60.040;30.320;2024-01-16T13:57:32;11.80;;;6.10;;
66145;SDS011;52948;60.040;30.320;2024-01-16T14:02:37;13.38;;;6.53;;
66145;SDS011;52948;60.040;30.320;2024-01-16T14:07:41;12.38;;;6.90;;
66145;SDS011;52948;60.040;30.320;2024-01-16T14:12:44;11.23;;;6.13;;
66145;SDS011;52948;60.040;30.320;2024-01-16T14:17:48;11.48;;;6.97;;
66145;SDS011;52948;60.040;30.320;2024-01-16T14:22:54;12.85;;;6.13;;
66145;SDS011;52948;60.040;30.320;2024-01-16T14:28:02;10.27;;;5.97;;
66145;SDS011;52948;60.040;30.320;2024-01-16T14:33:05;11.23;;;5.60;;
66145;SDS011;52948;60.040;30.320;2024-01-16T14:38:10;9.55;;;5.30;;
66145;SDS011;52948;60.040;30.320;2024-01-16T14:43:12;16.60;;;5.95;;
66145;SDS011;52948;60.040;30.320;2024-01-16T14:48:17;10.32;;;5.18;;
66145;SDS011;52948;60.040;30.320;2024-01-16T14:53:19;11.65;;;5.53;;
66145;SDS011;52948;60.040;30.320;2024-01-16T14:58:22;11.77;;;6.05;;
66145;SDS011;52948;60.040;30.320;2024-01-16T15:03:25;9.05;;;4.90;;
66145;SDS011;52948;60.040;30.320;2024-01-16T15:08:30;9.80;;;4.47;;
66145;SDS011;52948;60.040;30.320;2024-01-16T15:18:39;11.18;;;6.05;;
66145;SDS011;52948;60.040;30.320;2024-01-16T15:23:44;11.10;;;6.03;;
66145;SDS011;52948;60.040;30.320;2024-01-16T15:28:49;12.13;;;5.95;;
66145;SDS011;52948;60.040;30.320;2024-01-16T15:33:51;11.35;;;5.75;;
66145;SDS011;52948;60.040;30.320;2024-01-16T15:38:54;9.43;;;5.18;;
66145;SDS011;52948;60.040;30.320;2024-01-16T15:43:56;9.48;;;5.57;;
66145;SDS011;52948;60.040;30.320;2024-01-16T15:49:02;10.27;;;5.65;;
66145;SDS011;52948;60.040;30.320;2024-01-16T15:54:10;10.18;;;5.70;;
66145;SDS011;52948;60.040;30.320;2024-01-16T15:59:13;13.07;;;5.75;;
66145;SDS011;52948;60.040;30.320;2024-01-16T16:04:17;10.48;;;6.15;;
66145;SDS011;52948;60.040;30.320;2024-01-16T16:09:20;9.07;;;5.65;;
66145;SDS011;52948;60.040;30.320;2024-01-16T16:14:23;11.25;;;6.00;;
66145;SDS011;52948;60.040;30.320;2024-01-16T16:19:26;13.80;;;6.82;;
66145;SDS011;52948;60.040;30.320;2024-01-16T16:24:28;9.95;;;5.68;;
66145;SDS011;52948;60.040;30.320;2024-01-16T16:29:35;11.90;;;6.38;;
66145;SDS011;52948;60.040;30.320;2024-01-16T16:34:39;10.88;;;6.18;;
66145;SDS011;52948;60.040;30.320;2024-01-16T16:39:43;9.65;;;5.22;;
66145;SDS011;52948;60.040;30.320;2024-01-16T16:44:46;13.05;;;5.80;;
66145;SDS011;52948;60.040;30.320;2024-01-16T16:49:49;10.93;;;5.10;;
66145;SDS011;52948;60.040;30.320;2024-01-16T16:54:51;8.02;;;5.35;;
66145;SDS011;52948;60.040;30.320;2024-01-16T16:59:54;9.48;;;5.82;;
66145;SDS011;52948;60.040;30.320;2024-01-16T17:04:57;9.77;;;4.97;;
66145;SDS011;52948;60.040;30.320;2024-01-16T17:10:00;12.27;;;5.47;;
66145;SDS011;52948;60.040;30.320;2024-01-16T17:15:03;7.55;;;5.05;;
66145;SDS011;52948;60.040;30.320;2024-01-16T17:20:07;13.88;;;5.70;;
66145;SDS011;52948;60.040;30.320;2024-01-16T17:25:16;10.38;;;5.28;;
66145;SDS011;52948;60.040;30.320;2024-01-16T17:30:19;9.27;;;5.07;;
66145;SDS011;52948;60.040;30.320;2024-01-16T17:35:22;8.07;;;4.07;;
66145;SDS011;52948;60.040;30.320;2024-01-16T17:40:25;10.18;;;4.60;;
66145;SDS011;52948;60.040;30.320;2024-01-16T17:45:28;6.45;;;3.10;;
66145;SDS011;52948;60.040;30.320;2024-01-16T17:50:30;9.10;;;3.50;;
66145;SDS011;52948;60.040;30.320;2024-01-16T17:55:33;4.63;;;3.08;;
66145;SDS011;52948;60.040;30.320;2024-01-16T18:00:36;9.25;;;3.60;;
66145;SDS011;52948;60.040;30.320;2024-01-16T18:05:39;8.43;;;3.88;;
66145;SDS011;52948;60.040;30.320;2024-01-16T18:10:41;5.93;;;3.20;;
66145;SDS011;52948;60.040;30.320;2024-01-16T18:15:44;6.43;;;3.58;;
66145;SDS011;52948;60.040;30.320;2024-01-16T18:20:46;5.85;;;2.90;;
66145;SDS011;52948;60.040;30.320;2024-01-16T18:25:49;6.82;;;3.10;;
66145;SDS011;52948;60.040;30.320;2024-01-16T18:30:52;5.22;;;2.53;;
66145;SDS011;52948;60.040;30.320;2024-01-16T18:35:55;13.90;;;4.90;;
66145;SDS011;52948;60.040;30.320;2024-01-16T18:41:01;4.22;;;2.72;;
66145;SDS011;52948;60.040;30.320;2024-01-16T18:46:07;7.68;;;3.67;;
66145;SDS011;52948;60.040;30.320;2024-01-16T18:51:12;6.30;;;3.20;;
66145;SDS011;52948;60.040;30.320;2024-01-16T18:56:15;7.40;;;3.88;;
66145;SDS011;52948;60.040;30.320;2024-01-16T19:01:18;6.63;;;3.80;;
66145;SDS011;52948;60.040;30.320;2024-01-16T19:06:24;7.50;;;3.58;;
66145;SDS011;52948;60.040;30.320;2024-01-16T19:11:26;5.85;;;2.85;;
66145;SDS011;52948;60.040;30.320;2024-01-16T19:16:29;6.50;;;3.25;;
66145;SDS011;52948;60.040;30.320;2024-01-16T19:21:36;6.95;;;3.40;;
66145;SDS011;52948;60.040;30.320;2024-01-16T19:26:39;4.47;;;2.17;;
66145;SDS011;52948;60.040;30.320;2024-01-16T19:31:51;6.80;;;3.17;;
66145;SDS011;52948;60.040;30.320;2024-01-16T19:36:55;6.68;;;3.40;;
66145;SDS011;52948;60.040;30.320;2024-01-16T19:42:01;7.20;;;3.40;;
66145;SDS011;52948;60.040;30.320;2024-01-16T19:47:03;6.63;;;2.78;;
66145;SDS011;52948;60.040;30.320;2024-01-16T19:52:09;4.05;;;2.45;;
66145;SDS011;52948;60.040;30.320;2024-01-16T19:57:11;4.97;;;3.50;;
66145;SDS011;52948;60.040;30.320;2024-01-16T20:02:14;8.45;;;2.72;;
66145;SDS011;52948;60.040;30.320;2024-01-16T20:07:17;6.35;;;2.95;;
66145;SDS011;52948;60.040;30.320;2024-01-16T20:12:20;5.00;;;2.00;;
66145;SDS011;52948;60.040;30.320;2024-01-16T20:17:26;7.88;;;3.70;;
66145;SDS011;52948;60.040;30.320;2024-01-16T20:22:28;6.35;;;3.47;;
66145;SDS011;52948;60.040;30.320;2024-01-16T20:27:32;6.03;;;2.83;;
66145;SDS011;52948;60.040;30.320;2024-01-16T20:32:36;5.22;;;2.83;;
66145;SDS011;52948;60.040;30.320;2024-01-16T20:37:43;4.70;;;2.90;;
66145;SDS011;52948;60.040;30.320;2024-01-16T20:42:47;6.85;;;3.55;;
66145;SDS011;52948;60.040;30.320;2024-01-16T20:47:50;8.38;;;3.10;;
66145;SDS011;52948;60.040;30.320;2024-01-16T20:52:54;5.55;;;3.30;;
66145;SDS011;52948;60.040;30.320;2024-01-16T20:57:56;4.80;;;2.45;;
66145;SDS011;52948;60.040;30.320;2024-01-16T21:03:00;7.78;;;3.38;;
66145;SDS011;52948;60.040;30.320;2024-01-16T21:08:05;3.65;;;2.40;;
66145;SDS011;52948;60.040;30.320;2024-01-16T21:13:08;6.53;;;2.90;;
66145;SDS011;52948;60.040;30.320;2024-01-16T21:18:11;6.82;;;3.00;;
66145;SDS011;52948;60.040;30.320;2024-01-16T21:23:14;9.38;;;3.67;;
66145;SDS011;52948;60.040;30.320;2024-01-16T21:28:17;6.03;;;3.22;;
66145;SDS011;52948;60.040;30.320;2024-01-16T21:33:19;4.78;;;2.78;;
66145;SDS011;52948;60.040;30.320;2024-01-16T21:38:22;9.10;;;3.55;;
66145;SDS011;52948;60.040;30.320;2024-01-16T21:43:24;6.28;;;1.30;;
66145;SDS011;52948;60.040;30.320;2024-01-16T21:48:26;7.13;;;2.90;;
66145;SDS011;52948;60.040;30.320;2024-01-16T21:53:30;7.95;;;3.53;;
66145;SDS011;52948;60.040;30.320;2024-01-16T21:58:32;6.35;;;1.63;;
66145;SDS011;52948;60.040;30.320;2024-01-16T22:03:34;4.95;;;2.80;;
66145;SDS011;52948;60.040;30.320;2024-01-16T22:08:37;5.35;;;3.28;;
66145;SDS011;52948;60.040;30.320;2024-01-16T22:13:39;6.95;;;3.33;;
66145;SDS011;52948;60.040;30.320;2024-01-16T22:18:41;4.05;;;2.35;;
66145;SDS011;52948;60.040;30.320;2024-01-16T22:23:44;5.38;;;2.83;;
66145;SDS011;52948;60.040;30.320;2024-01-16T22:28:48;4.30;;;2.40;;
66145;SDS011;52948;60.040;30.320;2024-01-16T22:33:51;4.82;;;2.47;;
66145;SDS011;52948;60.040;30.320;2024-01-16T22:38:53;3.97;;;2.80;;
66145;SDS011;52948;60.040;30.320;2024-01-16T22:43:56;9.15;;;3.13;;
66145;SDS011;52948;60.040;30.320;2024-01-16T22:49:00;6.63;;;3.22;;
66145;SDS011;52948;60.040;30.320;2024-01-16T22:54:05;4.40;;;2.38;;
66145;SDS011;52948;60.040;30.320;2024-01-16T22:59:08;5.85;;;2.85;;
66145;SDS011;52948;60.040;30.320;2024-01-16T23:04:11;13.27;;;5.13;;
66145;SDS011;52948;60.040;30.320;2024-01-16T23:09:14;12.77;;;5.45;;
66145;SDS011;52948;60.040;30.320;2024-01-16T23:14:23;9.45;;;4.70;;
66145;SDS011;52948;60.040;30.320;2024-01-16T23:19:27;7.47;;;4.15;;
66145;SDS011;52948;60.040;30.320;2024-01-16T23:24:33;7.80;;;4.05;;
66145;SDS011;52948;60.040;30.320;2024-01-16T23:41:00;7.25;;;3.97;;
66145;SDS011;52948;60.040;30.320;2024-01-16T23:46:03;9.20;;;4.82;;
66145;SDS011;52948;60.040;30.320;2024-01-16T23:51:08;9.68;;;3.65;;
66145;SDS011;52948;60.040;30.320;2024-01-16T23:56:10;7.03;;;3.67;;
